Time;durP1;ratioP1;P1;durP2;ratioP2;P2;SDS_P1;SDS_P2;PMS_P1;PMS_P2;Temp;Humidity;BMP_temperature;BMP_pressure;BME280_temperature;BME280_humidity;BME280_pressure;Samples;Min_cycle;Max_cycle;Signal;HPM_P1;HPM_P2
2023/10/23 00:00:12;;;;;;;9.20;3.20;;;;;;;;;;104135;1286;544917;-76
2023/10/23 00:03:46;;;;;;;9.20;3.20;;;;;;;;;;103933;1290;545063;-74
2023/10/23 00:07:29;;;;;;;8.20;3.10;;;;;;;;;;103804;1289;545126;-75
2023/10/23 00:11:07;;;;;;;9.90;3.60;;;;;;;;;;103782;1292;545535;-75
2023/10/23 00:14:44;;;;;;;9.90;3.50;;;;;;;;;;104245;1286;544796;-75
2023/10/23 00:18:21;;;;;;;9.20;3.10;;;;;;;;;;103903;1301;544977;-75
2023/10/23 00:21:59;;;;;;;9.50;3.60;;;;;;;;;;103609;1294;545731;-75
2023/10/23 00:25:36;;;;;;;9.40;3.50;;;;;;;;;;103776;1292;544910;-74
2023/10/23 00:29:14;;;;;;;9.00;3.30;;;;;;;;;;104083;1286;545522;-74
2023/10/23 00:32:51;;;;;;;7.90;2.90;;;;;;;;;;103787;1290;545250;-74
2023/10/23 00:36:29;;;;;;;7.80;3.00;;;;;;;;;;103758;1289;544779;-74
2023/10/23 00:40:07;;;;;;;10.00;3.30;;;;;;;;;;104016;1295;545026;-74
2023/10/23 00:43:44;;;;;;;7.80;2.80;;;;;;;;;;103765;1292;545570;-74
2023/10/23 00:47:22;;;;;;;8.70;3.50;;;;;;;;;;104684;1283;544849;-74
2023/10/23 00:50:59;;;;;;;11.20;4.50;;;;;;;;;;103938;1292;545149;-75
2023/10/23 00:54:38;;;;;;;9.90;4.30;;;;;;;;;;103758;1289;544999;-77
2023/10/23 00:58:14;;;;;;;10.10;4.30;;;;;;;;;;103760;1290;544723;-74
2023/10/23 01:01:47;;;;;;;9.90;4.30;;;;;;;;;;103662;1295;545478;-74
2023/10/23 01:05:30;;;;;;;10.10;4.00;;;;;;;;;;103779;1294;545227;-74
2023/10/23 01:09:09;;;;;;;9.10;3.90;;;;;;;;;;103845;1292;545655;-75
2023/10/23 01:12:45;;;;;;;8.90;3.20;;;;;;;;;;103838;1290;545301;-74
2023/10/23 01:16:22;;;;;;;9.50;3.10;;;;;;;;;;103755;1290;546320;-74
2023/10/23 01:20:00;;;;;;;10.20;3.00;;;;;;;;;;103862;1290;544789;-74
2023/10/23 01:23:41;;;;;;;9.90;3.10;;;;;;;;;;103847;1288;544745;-74
2023/10/23 01:27:15;;;;;;;9.20;3.10;;;;;;;;;;103812;1295;544813;-74
2023/10/23 01:30:52;;;;;;;8.10;2.70;;;;;;;;;;103788;1301;545036;-75
2023/10/23 01:34:30;;;;;;;7.90;2.80;;;;;;;;;;103737;1290;545128;-74
2023/10/23 01:38:08;;;;;;;8.60;2.60;;;;;;;;;;103778;1292;545003;-74
2023/10/23 01:41:51;;;;;;;7.50;2.70;;;;;;;;;;103566;1296;548462;-74
2023/10/23 01:45:22;;;;;;;8.20;3.50;;;;;;;;;;103923;1288;544793;-74
2023/10/23 01:49:00;;;;;;;12.60;5.50;;;;;;;;;;104051;1288;545050;-74
2023/10/23 01:52:38;;;;;;;13.60;6.20;;;;;;;;;;103775;1292;544738;-79
2023/10/23 01:56:11;;;;;;;11.50;5.20;;;;;;;;;;103875;1289;544815;-74
2023/10/23 01:59:55;;;;;;;11.70;5.60;;;;;;;;;;103796;1292;544983;-74
2023/10/23 02:03:51;;;;;;;11.20;4.90;;;;;;;;;;103671;1302;548031;-74
2023/10/23 02:07:09;;;;;;;10.80;4.80;;;;;;;;;;104744;1283;545237;-74
2023/10/23 02:10:46;;;;;;;8.90;3.40;;;;;;;;;;103741;1292;545274;-74
2023/10/23 02:14:24;;;;;;;9.00;2.70;;;;;;;;;;103591;1294;544645;-74
2023/10/23 02:18:03;;;;;;;7.30;2.40;;;;;;;;;;104130;1286;545156;-74
2023/10/23 02:21:39;;;;;;;8.00;2.40;;;;;;;;;;103485;1295;544937;-75
2023/10/23 02:25:17;;;;;;;7.90;2.40;;;;;;;;;;103916;1289;544927;-74
2023/10/23 02:28:55;;;;;;;7.00;2.30;;;;;;;;;;103759;1290;544788;-74
2023/10/23 02:32:33;;;;;;;7.80;2.20;;;;;;;;;;103724;1290;544919;-74
2023/10/23 02:36:09;;;;;;;9.40;2.50;;;;;;;;;;103727;1292;544936;-74
2023/10/23 02:39:47;;;;;;;8.70;2.50;;;;;;;;;;103717;1292;544954;-74
2023/10/23 02:43:24;;;;;;;9.30;2.90;;;;;;;;;;103768;1292;544800;-73
2023/10/23 02:47:02;;;;;;;8.50;3.10;;;;;;;;;;103717;1291;544744;-74
2023/10/23 02:50:39;;;;;;;9.50;3.30;;;;;;;;;;103788;1292;544973;-74
2023/10/23 02:54:16;;;;;;;8.90;2.60;;;;;;;;;;104117;1289;545392;-75
2023/10/23 02:57:50;;;;;;;9.10;2.80;;;;;;;;;;103927;1289;545037;-74
2023/10/23 03:01:34;;;;;;;7.40;2.50;;;;;;;;;;103751;1289;544691;-74
2023/10/23 03:05:13;;;;;;;11.50;2.70;;;;;;;;;;103869;1292;545439;-74
2023/10/23 03:08:48;;;;;;;10.20;3.90;;;;;;;;;;104125;1289;545248;-75
2023/10/23 03:12:26;;;;;;;10.90;4.30;;;;;;;;;;103709;1295;544799;-77
2023/10/23 03:16:04;;;;;;;11.90;4.30;;;;;;;;;;103681;1295;545251;-76
2023/10/23 03:19:37;;;;;;;8.30;3.20;;;;;;;;;;103807;1288;544777;-78
2023/10/23 03:23:19;;;;;;;8.50;2.90;;;;;;;;;;103790;1292;544897;-75
2023/10/23 03:26:56;;;;;;;9.60;3.30;;;;;;;;;;104563;1283;545497;-74
2023/10/23 03:30:34;;;;;;;8.80;3.30;;;;;;;;;;103770;1293;544773;-75
2023/10/23 03:34:11;;;;;;;9.80;3.70;;;;;;;;;;103719;1289;544815;-74
2023/10/23 03:37:48;;;;;;;8.90;3.40;;;;;;;;;;103751;1291;545963;-74
2023/10/23 03:41:26;;;;;;;8.40;3.10;;;;;;;;;;103821;1292;545075;-78
2023/10/23 03:45:04;;;;;;;8.50;3.40;;;;;;;;;;103779;1289;544802;-74
2023/10/23 03:48:41;;;;;;;10.10;3.50;;;;;;;;;;103756;1292;544859;-75
2023/10/23 03:52:18;;;;;;;9.60;3.60;;;;;;;;;;103775;1289;545597;-74
2023/10/23 03:55:56;;;;;;;11.70;3.30;;;;;;;;;;103747;1289;544924;-82
2023/10/23 03:59:33;;;;;;;9.00;3.00;;;;;;;;;;103697;1292;545327;-75
2023/10/23 04:03:07;;;;;;;10.10;3.30;;;;;;;;;;103777;1292;544986;-75
2023/10/23 04:06:50;;;;;;;8.30;3.10;;;;;;;;;;103723;1295;544979;-74
2023/10/23 04:10:27;;;;;;;9.20;3.20;;;;;;;;;;103779;1289;545050;-73
2023/10/23 04:14:05;;;;;;;7.50;2.90;;;;;;;;;;103873;1291;545660;-75
2023/10/23 04:17:42;;;;;;;9.90;3.40;;;;;;;;;;103775;1292;544950;-74
2023/10/23 04:21:20;;;;;;;9.90;3.10;;;;;;;;;;103625;1292;544851;-74
2023/10/23 04:24:57;;;;;;;8.80;3.30;;;;;;;;;;103748;1291;544867;-74
2023/10/23 04:28:36;;;;;;;9.20;3.40;;;;;;;;;;104534;1283;544933;-75
2023/10/23 04:32:08;;;;;;;8.50;3.10;;;;;;;;;;103715;1289;544805;-74
2023/10/23 04:35:46;;;;;;;8.90;3.60;;;;;;;;;;103744;1291;544786;-75
2023/10/23 04:39:29;;;;;;;8.90;3.60;;;;;;;;;;103735;1292;545012;-79
2023/10/23 04:43:06;;;;;;;9.30;4.00;;;;;;;;;;103824;1292;545791;-74
2023/10/23 04:46:45;;;;;;;9.20;3.90;;;;;;;;;;103771;1295;544855;-80
2023/10/23 04:50:22;;;;;;;11.30;4.00;;;;;;;;;;103701;1292;545543;-75
2023/10/23 04:53:58;;;;;;;9.10;3.60;;;;;;;;;;103889;1289;544919;-81
2023/10/23 04:57:36;;;;;;;8.10;3.00;;;;;;;;;;103787;1298;545273;-78
2023/10/23 05:01:16;;;;;;;8.90;3.40;;;;;;;;;;103876;1294;544910;-75
2023/10/23 05:04:59;;;;;;;11.40;4.20;;;;;;;;;;103890;1289;544964;-79
2023/10/23 05:08:39;;;;;;;12.60;3.80;;;;;;;;;;104126;1286;545118;-76
2023/10/23 05:12:14;;;;;;;12.20;4.20;;;;;;;;;;103753;1292;545348;-74
2023/10/23 05:15:52;;;;;;;11.50;3.80;;;;;;;;;;103745;1292;544813;-81
2023/10/23 05:19:29;;;;;;;9.70;3.70;;;;;;;;;;103823;1290;546535;-74
2023/10/23 05:23:07;;;;;;;9.40;4.00;;;;;;;;;;103595;1291;545042;-75
2023/10/23 05:26:43;;;;;;;10.10;3.50;;;;;;;;;;103969;1289;544864;-78
2023/10/23 05:30:21;;;;;;;12.20;4.10;;;;;;;;;;103729;1292;545459;-74
2023/10/23 05:33:59;;;;;;;8.30;3.80;;;;;;;;;;103713;1292;545673;-74
2023/10/23 05:37:36;;;;;;;11.10;4.60;;;;;;;;;;103715;1289;544827;-74
2023/10/23 05:41:14;;;;;;;11.90;6.20;;;;;;;;;;103805;1294;545023;-74
2023/10/23 05:44:51;;;;;;;13.80;6.00;;;;;;;;;;103731;1292;545375;-74
2023/10/23 05:48:25;;;;;;;18.00;7.80;;;;;;;;;;103773;1291;544709;-74
2023/10/23 05:52:07;;;;;;;19.10;9.60;;;;;;;;;;103776;1302;545688;-74
2023/10/23 05:55:43;;;;;;;25.10;12.70;;;;;;;;;;103718;1293;545521;-74
2023/10/23 05:59:21;;;;;;;23.00;11.70;;;;;;;;;;103723;1290;544813;-74
2023/10/23 06:02:59;;;;;;;25.40;11.60;;;;;;;;;;103781;1292;545048;-74
2023/10/23 06:06:32;;;;;;;26.80;12.00;;;;;;;;;;103744;1291;544978;-81
2023/10/23 06:10:15;;;;;;;25.30;11.90;;;;;;;;;;104045;1292;545447;-80
2023/10/23 06:13:53;;;;;;;23.10;9.90;;;;;;;;;;103753;1290;547281;-78
2023/10/23 06:17:31;;;;;;;25.50;13.30;;;;;;;;;;103740;1290;544844;-74
2023/10/23 06:21:07;;;;;;;16.60;7.90;;;;;;;;;;103851;1288;544990;-73
2023/10/23 06:24:46;;;;;;;18.80;7.40;;;;;;;;;;103726;1288;545315;-75
2023/10/23 06:28:23;;;;;;;18.00;7.50;;;;;;;;;;103798;1292;545032;-76
2023/10/23 06:31:59;;;;;;;16.50;6.30;;;;;;;;;;103623;1291;545303;-75
2023/10/23 06:35:38;;;;;;;16.60;6.40;;;;;;;;;;103775;1290;544961;-74
2023/10/23 06:39:16;;;;;;;19.20;8.20;;;;;;;;;;103771;1301;544726;-74
2023/10/23 06:42:52;;;;;;;29.70;11.10;;;;;;;;;;103686;1291;545015;-74
2023/10/23 06:46:30;;;;;;;26.10;9.10;;;;;;;;;;103771;1289;546311;-75
2023/10/23 06:50:10;;;;;;;19.70;6.60;;;;;;;;;;103779;1292;544812;-74
2023/10/23 06:53:45;;;;;;;13.70;4.70;;;;;;;;;;103867;1290;544855;-74
2023/10/23 06:57:22;;;;;;;17.20;7.10;;;;;;;;;;103691;1292;545572;-81
2023/10/23 07:00:56;;;;;;;17.10;6.10;;;;;;;;;;103864;1292;544828;-73
2023/10/23 07:04:37;;;;;;;19.40;7.00;;;;;;;;;;103737;1292;545087;-75
2023/10/23 07:08:15;;;;;;;12.30;5.20;;;;;;;;;;103972;1288;544969;-75
2023/10/23 07:11:52;;;;;;;11.40;4.00;;;;;;;;;;103706;1292;544972;-74
2023/10/23 07:15:34;;;;;;;13.40;4.70;;;;;;;;;;103739;1290;545024;-75
2023/10/23 07:19:07;;;;;;;16.50;4.60;;;;;;;;;;103812;1288;544750;-73
2023/10/23 07:22:44;;;;;;;11.90;4.20;;;;;;;;;;103707;1289;545046;-76
2023/10/23 07:26:22;;;;;;;9.70;4.10;;;;;;;;;;103742;1291;545969;-74
2023/10/23 07:30:00;;;;;;;11.00;4.00;;;;;;;;;;103807;1291;545050;-79
2023/10/23 07:33:37;;;;;;;10.20;3.90;;;;;;;;;;103780;1291;545056;-74
2023/10/23 07:37:18;;;;;;;13.10;4.50;;;;;;;;;;103747;1290;545647;-75
2023/10/23 07:40:52;;;;;;;11.20;4.70;;;;;;;;;;103687;1291;544863;-75
2023/10/23 07:44:30;;;;;;;14.80;5.00;;;;;;;;;;104040;1292;544725;-74
2023/10/23 07:48:06;;;;;;;12.80;3.90;;;;;;;;;;103763;1292;545165;-75
2023/10/23 07:51:40;;;;;;;13.40;4.30;;;;;;;;;;103988;1286;544765;-76
2023/10/23 07:55:22;;;;;;;13.80;5.00;;;;;;;;;;103727;1292;545421;-83
2023/10/23 07:59:07;;;;;;;11.50;4.00;;;;;;;;;;103629;1292;548234;-77
2023/10/23 08:02:37;;;;;;;11.10;4.20;;;;;;;;;;103748;1302;544931;-75
2023/10/23 08:06:15;;;;;;;14.40;3.90;;;;;;;;;;103728;1294;545066;-75
2023/10/23 08:09:52;;;;;;;12.70;4.30;;;;;;;;;;103875;1288;545582;-75
2023/10/23 08:13:30;;;;;;;11.30;4.90;;;;;;;;;;103818;1296;544907;-76
2023/10/23 08:17:07;;;;;;;13.30;4.80;;;;;;;;;;103780;1292;544986;-76
2023/10/23 08:20:44;;;;;;;10.00;4.00;;;;;;;;;;103726;1291;544808;-75
2023/10/23 08:24:22;;;;;;;11.90;4.30;;;;;;;;;;103978;1289;545239;-75
2023/10/23 08:28:19;;;;;;;12.30;3.90;;;;;;;;;;103958;1291;548033;-77
2023/10/23 08:31:37;;;;;;;12.20;4.30;;;;;;;;;;103943;1289;544920;-76
2023/10/23 08:35:15;;;;;;;11.00;4.20;;;;;;;;;;103817;1289;545597;-76
2023/10/23 08:38:52;;;;;;;11.70;3.90;;;;;;;;;;103744;1295;545163;-76
2023/10/23 08:42:30;;;;;;;12.10;5.20;;;;;;;;;;103743;1292;544807;-78
2023/10/23 08:46:08;;;;;;;14.70;7.30;;;;;;;;;;103789;1290;545393;-77
2023/10/23 08:49:44;;;;;;;12.20;5.40;;;;;;;;;;104029;1288;545218;-76
2023/10/23 08:53:31;;;;;;;12.00;5.00;;;;;;;;;;103370;1294;547769;-77
2023/10/23 08:57:05;;;;;;;11.90;4.40;;;;;;;;;;103626;1292;548089;-76
2023/10/23 09:00:37;;;;;;;14.10;3.70;;;;;;;;;;103685;1293;544984;-76
2023/10/23 09:04:20;;;;;;;12.00;4.20;;;;;;;;;;103532;1294;548537;-76
2023/10/23 09:07:51;;;;;;;12.50;4.40;;;;;;;;;;103801;1292;544820;-76
2023/10/23 09:11:39;;;;;;;11.80;3.80;;;;;;;;;;103779;1291;545362;-76
2023/10/23 09:15:20;;;;;;;10.40;3.50;;;;;;;;;;103426;1294;547821;-77
2023/10/23 09:18:49;;;;;;;9.70;3.40;;;;;;;;;;103649;1296;548069;-77
2023/10/23 09:22:26;;;;;;;8.90;3.10;;;;;;;;;;103723;1290;544889;-78
2023/10/23 09:26:00;;;;;;;13.30;3.60;;;;;;;;;;104193;1290;544928;-77
2023/10/23 09:29:42;;;;;;;8.50;3.00;;;;;;;;;;104005;1286;548432;-78
2023/10/23 09:33:19;;;;;;;9.30;3.10;;;;;;;;;;103719;1290;548054;-78
2023/10/23 09:36:56;;;;;;;10.20;3.10;;;;;;;;;;103324;1298;548010;-78
2023/10/23 09:40:29;;;;;;;10.20;2.70;;;;;;;;;;103791;1288;545457;-78
2023/10/23 09:44:12;;;;;;;10.50;2.90;;;;;;;;;;103728;1290;548013;-78
2023/10/23 09:47:49;;;;;;;10.00;2.80;;;;;;;;;;103576;1292;547893;-78
2023/10/23 09:51:27;;;;;;;6.90;2.40;;;;;;;;;;103741;1291;544816;-78
2023/10/23 09:55:07;;;;;;;8.90;2.80;;;;;;;;;;103731;1294;548003;-78
2023/10/23 09:58:43;;;;;;;11.30;2.70;;;;;;;;;;103606;1291;547816;-79
2023/10/23 10:02:20;;;;;;;8.90;2.50;;;;;;;;;;104107;1285;548285;-79
2023/10/23 10:05:56;;;;;;;13.80;3.10;;;;;;;;;;103810;1292;544895;-78
2023/10/23 10:09:29;;;;;;;8.60;2.90;;;;;;;;;;103869;1292;544912;-77
2023/10/23 10:13:06;;;;;;;10.20;2.80;;;;;;;;;;103783;1291;544865;-78
2023/10/23 10:16:49;;;;;;;9.20;2.50;;;;;;;;;;103664;1292;548256;-77
2023/10/23 10:20:27;;;;;;;11.70;2.80;;;;;;;;;;103409;1294;547793;-79
2023/10/23 10:23:58;;;;;;;11.50;3.10;;;;;;;;;;103764;1289;544854;-78
2023/10/23 10:27:35;;;;;;;9.30;2.60;;;;;;;;;;103816;1301;545754;-78
2023/10/23 10:31:13;;;;;;;9.60;2.60;;;;;;;;;;103754;1289;545974;-78
2023/10/23 10:34:59;;;;;;;7.80;2.00;;;;;;;;;;103735;1290;547796;-79
2023/10/23 10:38:31;;;;;;;9.90;1.90;;;;;;;;;;103844;1294;544958;-77
2023/10/23 10:42:15;;;;;;;8.10;2.00;;;;;;;;;;103665;1289;548485;-78
2023/10/23 10:45:44;;;;;;;12.20;2.10;;;;;;;;;;103743;1289;544728;-78
2023/10/23 10:49:30;;;;;;;8.90;2.20;;;;;;;;;;103801;1299;548025;-77
2023/10/23 10:53:02;;;;;;;11.90;2.70;;;;;;;;;;103776;1291;545035;-77
2023/10/23 10:56:35;;;;;;;7.50;2.20;;;;;;;;;;103721;1291;545123;-77
2023/10/23 11:00:13;;;;;;;10.10;2.60;;;;;;;;;;103810;1292;544993;-77
2023/10/23 11:03:50;;;;;;;8.10;2.10;;;;;;;;;;104057;1286;544938;-77
2023/10/23 11:07:28;;;;;;;7.80;2.00;;;;;;;;;;104095;1286;545306;-77
2023/10/23 11:11:04;;;;;;;8.20;2.10;;;;;;;;;;104606;1287;545992;-77
2023/10/23 11:14:42;;;;;;;6.70;2.10;;;;;;;;;;103806;1289;544904;-76
2023/10/23 11:18:20;;;;;;;7.30;1.90;;;;;;;;;;103841;1290;545577;-78
2023/10/23 11:22:12;;;;;;;8.90;2.20;;;;;;;;;;103931;1292;545008;-78
2023/10/23 11:25:36;;;;;;;8.70;2.30;;;;;;;;;;103762;1291;544828;-77
2023/10/23 11:29:12;;;;;;;9.00;2.60;;;;;;;;;;103762;1290;545441;-77
2023/10/23 11:32:50;;;;;;;9.10;2.30;;;;;;;;;;103880;1289;545143;-77
2023/10/23 11:36:28;;;;;;;13.60;3.90;;;;;;;;;;103800;1288;545716;-76
2023/10/23 11:40:06;;;;;;;14.50;6.30;;;;;;;;;;103755;1290;545096;-76
2023/10/23 11:43:42;;;;;;;14.80;7.50;;;;;;;;;;103918;1289;545095;-76
2023/10/23 11:47:19;;;;;;;15.50;7.10;;;;;;;;;;103701;1292;544973;-76
2023/10/23 11:50:57;;;;;;;20.40;9.80;;;;;;;;;;103815;1291;545410;-76
2023/10/23 11:54:34;;;;;;;37.50;26.00;;;;;;;;;;103791;1292;545459;-75
2023/10/23 11:58:12;;;;;;;31.20;21.20;;;;;;;;;;103763;1292;545392;-76
2023/10/23 12:01:49;;;;;;;31.90;19.50;;;;;;;;;;103806;1292;545756;-75
2023/10/23 12:05:27;;;;;;;21.30;12.80;;;;;;;;;;103765;1289;545689;-76
2023/10/23 12:09:05;;;;;;;25.40;12.60;;;;;;;;;;103750;1291;545366;-75
2023/10/23 12:12:43;;;;;;;22.20;14.00;;;;;;;;;;103820;1295;545002;-75
2023/10/23 12:16:19;;;;;;;35.90;22.10;;;;;;;;;;103902;1288;545176;-76
2023/10/23 12:19:57;;;;;;;62.30;35.20;;;;;;;;;;103757;1291;544854;-78
2023/10/23 12:23:34;;;;;;;143.90;73.00;;;;;;;;;;103818;1303;545063;-78
2023/10/23 12:27:12;;;;;;;134.00;73.90;;;;;;;;;;103652;1294;545514;-75
2023/10/23 12:30:51;;;;;;;58.30;34.60;;;;;;;;;;103921;1288;547803;-75
2023/10/23 12:34:27;;;;;;;37.60;21.00;;;;;;;;;;103737;1302;544798;-76
2023/10/23 12:38:04;;;;;;;22.50;8.90;;;;;;;;;;103749;1290;545673;-76
2023/10/23 12:41:41;;;;;;;17.80;5.60;;;;;;;;;;103772;1291;544958;-76
2023/10/23 12:45:19;;;;;;;50.10;32.70;;;;;;;;;;103854;1289;546487;-77
2023/10/23 12:48:52;;;;;;;33.40;19.40;;;;;;;;;;103877;1289;544930;-80
2023/10/23 12:52:34;;;;;;;18.60;10.20;;;;;;;;;;103734;1291;545691;-75
2023/10/23 12:56:11;;;;;;;15.30;8.00;;;;;;;;;;103733;1292;544929;-75
2023/10/23 12:59:49;;;;;;;17.40;5.30;;;;;;;;;;103763;1290;545027;-77
2023/10/23 13:03:26;;;;;;;15.30;4.90;;;;;;;;;;103710;1289;545096;-76
2023/10/23 13:07:04;;;;;;;15.80;5.10;;;;;;;;;;103748;1289;544868;-75
2023/10/23 13:10:42;;;;;;;12.10;4.00;;;;;;;;;;104534;1282;544900;-76
2023/10/23 13:14:15;;;;;;;10.60;2.60;;;;;;;;;;104004;1288;545606;-75
2023/10/23 13:18:00;;;;;;;11.90;2.90;;;;;;;;;;103759;1289;544998;-78
2023/10/23 13:21:33;;;;;;;12.80;2.60;;;;;;;;;;103712;1292;544969;-76
2023/10/23 13:25:11;;;;;;;12.50;3.00;;;;;;;;;;103811;1288;544921;-76
2023/10/23 13:28:49;;;;;;;11.80;3.40;;;;;;;;;;103747;1292;545076;-76
2023/10/23 13:32:26;;;;;;;8.80;3.00;;;;;;;;;;103896;1289;545599;-79
2023/10/23 13:36:04;;;;;;;9.90;3.10;;;;;;;;;;103832;1292;545436;-75
2023/10/23 13:39:41;;;;;;;12.30;3.10;;;;;;;;;;103727;1295;544938;-76
2023/10/23 13:43:18;;;;;;;10.60;2.70;;;;;;;;;;103848;1292;545004;-75
2023/10/23 13:46:56;;;;;;;9.40;2.50;;;;;;;;;;103762;1289;546243;-74
2023/10/23 13:50:34;;;;;;;10.60;2.90;;;;;;;;;;103789;1291;544950;-75
2023/10/23 13:54:10;;;;;;;10.70;3.00;;;;;;;;;;103832;1292;545722;-76
2023/10/23 13:57:48;;;;;;;9.30;2.60;;;;;;;;;;103802;1289;545535;-76
2023/10/23 14:01:26;;;;;;;11.90;3.10;;;;;;;;;;104251;1290;545000;-74
2023/10/23 14:05:06;;;;;;;12.10;2.90;;;;;;;;;;103761;1291;545141;-76
2023/10/23 14:08:37;;;;;;;13.00;2.80;;;;;;;;;;103867;1292;545094;-79
2023/10/23 14:12:18;;;;;;;12.00;2.60;;;;;;;;;;103748;1291;545989;-75
2023/10/23 14:15:55;;;;;;;14.00;2.70;;;;;;;;;;103943;1290;545454;-75
2023/10/23 14:19:33;;;;;;;11.10;2.60;;;;;;;;;;103737;1294;545762;-75
2023/10/23 14:23:10;;;;;;;10.10;2.40;;;;;;;;;;103742;1292;545035;-78
2023/10/23 14:26:48;;;;;;;13.60;2.80;;;;;;;;;;103694;1290;545197;-75
2023/10/23 14:30:26;;;;;;;12.30;2.90;;;;;;;;;;103762;1292;545580;-82
2023/10/23 14:34:03;;;;;;;14.40;3.10;;;;;;;;;;103907;1289;544986;-76
2023/10/23 14:37:40;;;;;;;12.70;3.30;;;;;;;;;;103463;1294;545009;-75
2023/10/23 14:41:18;;;;;;;13.40;3.20;;;;;;;;;;103699;1292;545037;-75
2023/10/23 14:44:56;;;;;;;11.50;3.00;;;;;;;;;;103860;1290;545062;-75
2023/10/23 14:48:33;;;;;;;13.30;3.70;;;;;;;;;;103729;1298;545516;-75
2023/10/23 14:52:10;;;;;;;13.30;3.60;;;;;;;;;;103804;1291;545064;-82
2023/10/23 14:55:48;;;;;;;13.00;3.40;;;;;;;;;;103886;1292;544976;-75
2023/10/23 14:59:21;;;;;;;26.30;15.90;;;;;;;;;;103740;1290;545355;-79
2023/10/23 15:03:08;;;;;;;19.90;12.70;;;;;;;;;;103618;1292;545239;-80
2023/10/23 15:06:40;;;;;;;22.00;11.70;;;;;;;;;;104083;1289;544917;-75
2023/10/23 15:10:20;;;;;;;14.10;6.30;;;;;;;;;;103809;1291;544840;-75
2023/10/23 15:13:55;;;;;;;15.40;5.30;;;;;;;;;;103720;1295;544908;-82
2023/10/23 15:17:33;;;;;;;18.30;7.10;;;;;;;;;;104475;1289;544776;-76
2023/10/23 15:21:10;;;;;;;22.90;11.80;;;;;;;;;;103790;1292;544860;-75
2023/10/23 15:24:47;;;;;;;23.30;9.70;;;;;;;;;;103744;1290;545044;-83
2023/10/23 15:28:25;;;;;;;19.50;10.30;;;;;;;;;;103869;1289;544943;-75
2023/10/23 15:32:02;;;;;;;21.30;10.40;;;;;;;;;;104053;1289;544807;-78
2023/10/23 15:35:36;;;;;;;21.80;12.90;;;;;;;;;;103887;1289;545319;-74
2023/10/23 15:39:22;;;;;;;22.90;14.20;;;;;;;;;;103979;1289;545600;-75
2023/10/23 15:42:55;;;;;;;24.00;12.40;;;;;;;;;;103761;1289;544738;-74
2023/10/23 15:46:34;;;;;;;26.50;11.60;;;;;;;;;;103871;1288;545050;-75
2023/10/23 15:50:11;;;;;;;28.10;18.00;;;;;;;;;;103779;1292;544629;-74
2023/10/23 15:53:44;;;;;;;25.80;13.20;;;;;;;;;;103749;1292;545057;-75
2023/10/23 15:57:28;;;;;;;23.70;9.00;;;;;;;;;;103832;1290;544980;-74
2023/10/23 16:01:04;;;;;;;21.00;8.80;;;;;;;;;;104204;1287;544764;-79
2023/10/23 16:04:44;;;;;;;27.60;12.60;;;;;;;;;;103725;1292;545003;-83
2023/10/23 16:08:20;;;;;;;32.70;14.70;;;;;;;;;;103644;1291;545070;-80
2023/10/23 16:12:03;;;;;;;30.30;15.70;;;;;;;;;;103260;1294;548115;-76
2023/10/23 16:15:34;;;;;;;35.60;18.40;;;;;;;;;;103915;1289;545261;-78
2023/10/23 16:19:12;;;;;;;35.40;19.20;;;;;;;;;;103812;1292;545334;-81
2023/10/23 16:22:49;;;;;;;47.00;23.40;;;;;;;;;;103680;1292;545039;-76
2023/10/23 16:26:27;;;;;;;42.10;24.30;;;;;;;;;;103774;1292;544935;-75
2023/10/23 16:30:06;;;;;;;51.10;25.50;;;;;;;;;;103754;1291;545988;-75
2023/10/23 16:33:42;;;;;;;46.40;24.30;;;;;;;;;;103752;1291;545264;-83
2023/10/23 16:37:19;;;;;;;42.40;27.10;;;;;;;;;;103738;1291;545335;-75
2023/10/23 16:40:57;;;;;;;40.40;26.20;;;;;;;;;;103724;1290;545421;-75
2023/10/23 16:44:34;;;;;;;40.30;23.70;;;;;;;;;;103719;1292;544853;-75
2023/10/23 16:48:11;;;;;;;37.70;24.20;;;;;;;;;;103793;1292;545274;-77
2023/10/23 16:51:49;;;;;;;37.40;23.40;;;;;;;;;;103746;1295;546370;-76
2023/10/23 16:55:24;;;;;;;37.00;23.60;;;;;;;;;;103896;1302;544631;-78
2023/10/23 16:59:05;;;;;;;38.20;21.20;;;;;;;;;;103790;1289;544785;-74
2023/10/23 17:02:43;;;;;;;35.70;22.60;;;;;;;;;;103741;1289;544756;-79
2023/10/23 17:06:19;;;;;;;42.80;26.20;;;;;;;;;;103786;1292;545238;-84
2023/10/23 17:09:58;;;;;;;41.00;25.00;;;;;;;;;;104517;1283;544851;-82
2023/10/23 17:13:34;;;;;;;37.30;25.10;;;;;;;;;;103777;1289;545276;-78
2023/10/23 17:17:11;;;;;;;39.30;28.20;;;;;;;;;;103690;1291;545073;-79
2023/10/23 17:20:49;;;;;;;49.60;32.10;;;;;;;;;;103789;1295;545440;-76
2023/10/23 17:24:27;;;;;;;41.70;25.20;;;;;;;;;;103707;1292;544906;-81
2023/10/23 17:28:04;;;;;;;45.60;29.20;;;;;;;;;;103649;1289;545999;-75
2023/10/23 17:31:42;;;;;;;40.50;26.20;;;;;;;;;;103787;1288;545351;-75
2023/10/23 17:35:19;;;;;;;56.30;37.20;;;;;;;;;;103855;1293;544853;-74
2023/10/23 17:38:54;;;;;;;53.80;36.90;;;;;;;;;;104507;1282;544789;-77
2023/10/23 17:42:36;;;;;;;97.50;59.10;;;;;;;;;;104136;1285;545789;-74
2023/10/23 17:46:11;;;;;;;77.90;50.90;;;;;;;;;;103776;1292;544849;-76
2023/10/23 17:49:51;;;;;;;68.30;46.20;;;;;;;;;;103711;1292;544809;-83
2023/10/23 17:53:22;;;;;;;60.00;39.00;;;;;;;;;;103988;1289;545537;-75
2023/10/23 17:57:04;;;;;;;62.80;39.70;;;;;;;;;;103768;1292;544906;-82
2023/10/23 18:00:38;;;;;;;59.00;36.60;;;;;;;;;;104225;1292;545969;-75
2023/10/23 18:04:21;;;;;;;49.70;31.80;;;;;;;;;;103801;1295;544933;-79
2023/10/23 18:07:58;;;;;;;55.40;34.70;;;;;;;;;;103827;1288;544932;-75
2023/10/23 18:11:36;;;;;;;55.90;34.80;;;;;;;;;;103815;1288;544782;-81
2023/10/23 18:15:14;;;;;;;50.10;35.50;;;;;;;;;;103775;1289;545067;-81
2023/10/23 18:18:50;;;;;;;56.50;38.70;;;;;;;;;;103651;1292;544877;-80
2023/10/23 18:22:29;;;;;;;49.50;34.60;;;;;;;;;;103803;1292;545386;-75
2023/10/23 18:26:26;;;;;;;49.50;33.30;;;;;;;;;;103592;1291;548109;-81
2023/10/23 18:29:43;;;;;;;47.60;32.80;;;;;;;;;;104065;1289;545026;-76
2023/10/23 18:33:23;;;;;;;50.00;32.60;;;;;;;;;;103701;1292;545083;-81
2023/10/23 18:36:58;;;;;;;40.60;29.00;;;;;;;;;;103836;1289;544773;-80
2023/10/23 18:40:40;;;;;;;40.90;27.20;;;;;;;;;;103738;1289;544790;-75
2023/10/23 18:44:09;;;;;;;38.50;21.90;;;;;;;;;;103822;1292;545348;-79
2023/10/23 18:47:52;;;;;;;36.90;22.80;;;;;;;;;;103734;1300;545397;-78
2023/10/23 18:51:30;;;;;;;33.40;20.00;;;;;;;;;;103680;1290;545536;-77
2023/10/23 18:55:07;;;;;;;42.00;23.50;;;;;;;;;;103692;1289;544976;-74
2023/10/23 18:58:41;;;;;;;51.00;31.60;;;;;;;;;;103757;1295;545060;-74
2023/10/23 19:02:22;;;;;;;56.40;35.90;;;;;;;;;;103684;1292;545664;-75
2023/10/23 19:06:00;;;;;;;57.00;35.20;;;;;;;;;;103756;1289;545007;-75
2023/10/23 19:09:37;;;;;;;51.90;33.90;;;;;;;;;;103880;1289;545564;-78
2023/10/23 19:13:14;;;;;;;48.10;31.70;;;;;;;;;;103714;1289;545344;-76
2023/10/23 19:16:51;;;;;;;68.20;42.90;;;;;;;;;;103767;1291;545151;-74
2023/10/23 19:20:26;;;;;;;79.70;47.90;;;;;;;;;;103740;1289;545795;-83
2023/10/23 19:24:09;;;;;;;83.50;52.50;;;;;;;;;;103873;1288;544994;-75
2023/10/23 19:27:45;;;;;;;77.00;48.90;;;;;;;;;;103717;1294;545002;-79
2023/10/23 19:31:24;;;;;;;72.00;47.70;;;;;;;;;;103684;1292;545529;-74
2023/10/23 19:35:00;;;;;;;62.90;38.90;;;;;;;;;;103826;1291;545341;-75
2023/10/23 19:38:39;;;;;;;51.10;33.00;;;;;;;;;;103697;1301;545093;-75
2023/10/23 19:42:16;;;;;;;52.00;29.50;;;;;;;;;;103839;1291;544897;-74
2023/10/23 19:45:52;;;;;;;41.70;27.70;;;;;;;;;;103706;1290;544815;-74
2023/10/23 19:49:29;;;;;;;41.90;27.90;;;;;;;;;;103405;1298;544806;-74
2023/10/23 19:53:08;;;;;;;42.20;26.00;;;;;;;;;;103789;1292;545092;-74
2023/10/23 19:56:44;;;;;;;38.00;23.70;;;;;;;;;;103715;1291;545132;-74
2023/10/23 20:00:21;;;;;;;36.20;21.90;;;;;;;;;;103657;1291;544828;-74
2023/10/23 20:03:59;;;;;;;34.60;20.80;;;;;;;;;;103779;1290;545311;-75
2023/10/23 20:07:37;;;;;;;29.90;19.60;;;;;;;;;;103766;1294;545028;-74
2023/10/23 20:11:14;;;;;;;29.90;18.60;;;;;;;;;;103721;1292;546212;-74
2023/10/23 20:14:52;;;;;;;28.90;18.70;;;;;;;;;;103767;1292;545667;-74
2023/10/23 20:18:29;;;;;;;33.60;20.50;;;;;;;;;;104548;1286;545349;-74
2023/10/23 20:22:06;;;;;;;32.60;19.90;;;;;;;;;;103828;1289;545554;-78
2023/10/23 20:25:44;;;;;;;34.30;22.40;;;;;;;;;;103795;1291;545977;-75
2023/10/23 20:29:21;;;;;;;38.30;24.70;;;;;;;;;;103737;1302;545366;-74
2023/10/23 20:32:59;;;;;;;40.80;26.80;;;;;;;;;;104193;1286;545260;-74
2023/10/23 20:36:32;;;;;;;42.70;27.20;;;;;;;;;;103757;1291;545304;-74
2023/10/23 20:40:12;;;;;;;43.00;25.50;;;;;;;;;;103847;1289;545518;-81
2023/10/23 20:43:54;;;;;;;39.60;25.20;;;;;;;;;;103745;1290;545371;-79